This is the latest recevied weather packets stored in our database for station/object IZ7XUV. If no packets are shown the sender has not sent any weather packets the latest 10 day(s).
| Time | Temp. | Humidity | Pressure | Rain* | Wind** | Luminosity | Snow |
|---|---|---|---|---|---|---|---|
| 1777865138 | 11.67° C | 75% | 1018.7 hPa | 0 mm | - | 0 W/m² | - |
| 1777864528 | 12.22° C | 75% | 1018.7 hPa | 0 mm | - | 0 W/m² | - |
| 1777853121 | 11.11° C | 76% | 1019.2 hPa | 0 mm | - | 0 W/m² | - |
| 1777850762 | 11.11° C | 76% | 1019.3 hPa | 0 mm | - | 0 W/m² | - |
| 1777849521 | 11.67° C | 75% | 1019.3 hPa | 0 mm | - | 0 W/m² | - |
| 1777846532 | 11.67° C | 75% | 1019.5 hPa | 0 mm | - | 0 W/m² | - |
| 1777845374 | 11.67° C | 76% | 1019.2 hPa | 0 mm | - | 0 W/m² | - |
| 1777842324 | 12.78° C | 73% | 1019 hPa | 0 mm | - | 0 W/m² | - |
| 1777839334 | 13.33° C | 71% | 1018.9 hPa | 0 mm | - | 0 W/m² | - |
| 1777833357 | 17.22° C | 60% | 1018 hPa | 0 mm | - | 0 W/m² | - |
| 1777829758 | 20.56° C | 43% | 1018 hPa | 0 mm | - | 12 W/m² | - |
| 1777827927 | 21.11° C | 40% | 1017.9 hPa | 0 mm | - | 35 W/m² | - |
| 1777825568 | 20.56° C | 50% | 1018 hPa | 0 mm | - | 83 W/m² | - |
| 1777823718 | 19.44° C | 59% | 1018.1 hPa | 0 mm | - | 166 W/m² | - |
| 1777818350 | 20° C | 61% | 1018.6 hPa | 0 mm | - | 430 W/m² | - |
| 1777815972 | 20° C | 64% | 1019 hPa | 0 mm | - | 532 W/m² | - |
| 1777809932 | 20° C | 60% | 1019.5 hPa | 0 mm | - | 710 W/m² | - |
| 1777808163 | 20° C | 61% | 1019.6 hPa | 0 mm | - | 739 W/m² | - |
| 1777800966 | 20° C | 54% | 1020 hPa | 0 mm | - | 722 W/m² | - |
| 1777795536 | 19.44° C | 46% | 1019.8 hPa | 0 mm | - | 565 W/m² | - |
| 1777794927 | 19.44° C | 48% | 1019.9 hPa | 0 mm | - | 541 W/m² | - |
| 1777791327 | 18.33° C | 46% | 1019.9 hPa | 0 mm | - | 380 W/m² | - |
| 1777790168 | 18.33° C | 42% | 1019.9 hPa | 0 mm | - | 319 W/m² | - |
| 1777788338 | 17.78° C | 42% | 1019.8 hPa | 0 mm | - | 230 W/m² | - |
| 1777787118 | 16.67° C | 43% | 1019.8 hPa | 0 mm | - | 171 W/m² | - |
* Rain latest hour (hover to see other rain measurements)
** Current wind speed in m/s (hover to see current wind gust speed)